createdAt,value
2023-11-10T00:01:04.522Z,99524.69
2023-11-10T00:03:32.170Z,99521.31
2023-11-10T00:05:59.687Z,99520.50
2023-11-10T00:08:26.973Z,99512.81
2023-11-10T00:10:54.555Z,99520.50
2023-11-10T00:13:21.778Z,99522.19
2023-11-10T00:15:50.546Z,99523.00
2023-11-10T00:18:18.092Z,99523.88
2023-11-10T00:20:45.396Z,99527.31
2023-11-10T00:23:12.667Z,99527.31
2023-11-10T00:25:39.941Z,99525.56
2023-11-10T00:28:07.245Z,99536.66
2023-11-10T00:30:35.848Z,99540.03
2023-11-10T00:33:03.467Z,99540.91
2023-11-10T00:35:30.840Z,99535.84
2023-11-10T00:37:58.208Z,99536.72
2023-11-10T00:40:25.540Z,99541.91
2023-11-10T00:42:53.182Z,99543.69
2023-11-10T00:45:20.540Z,99536.06
2023-11-10T00:47:48.228Z,99541.19
2023-11-10T00:50:15.734Z,99545.44
2023-11-10T00:52:42.975Z,99543.75
2023-11-10T00:55:11.556Z,99541.19
2023-11-10T00:57:39.002Z,99546.34
2023-11-10T01:00:07.710Z,99545.53
2023-11-10T01:02:35.255Z,99547.28
2023-11-10T01:05:03.105Z,99548.09
2023-11-10T01:07:31.136Z,99561.78
2023-11-10T01:09:58.463Z,99563.47
2023-11-10T01:12:26.227Z,99566.94
2023-11-10T01:14:53.619Z,99561.03
2023-11-10T01:17:20.899Z,99564.53
2023-11-10T01:19:48.496Z,99559.41
2023-11-10T01:22:15.833Z,99559.41
2023-11-10T01:24:43.168Z,99556.84
2023-11-10T01:27:10.656Z,99564.53
2023-11-10T01:29:38.790Z,99571.28
2023-11-10T01:32:06.253Z,99571.28
2023-11-10T01:34:33.610Z,99570.38
2023-11-10T01:37:00.896Z,99573.03
2023-11-10T01:39:28.212Z,99567.09
2023-11-10T01:41:55.500Z,99573.97
2023-11-10T01:44:22.772Z,99573.97
2023-11-10T01:46:50.677Z,99574.00
2023-11-10T01:49:19.919Z,99568.84
2023-11-10T01:51:47.899Z,99576.56
2023-11-10T01:54:17.959Z,99574.00
2023-11-10T01:56:48.202Z,99574.84
2023-11-10T01:59:16.220Z,99576.53
2023-11-10T02:01:44.121Z,99579.97
2023-11-10T02:04:14.688Z,99585.94
2023-11-10T02:06:42.902Z,99590.19
2023-11-10T02:09:11.016Z,99592.69
2023-11-10T02:11:39.824Z,99591.81
2023-11-10T02:14:08.661Z,99595.25
2023-11-10T02:16:36.761Z,99602.94
2023-11-10T02:19:04.666Z,99600.38
2023-11-10T02:21:52.105Z,99610.69
2023-11-10T02:24:21.893Z,99606.31
2023-11-10T02:26:49.246Z,99614.00
2023-11-10T02:29:16.770Z,99618.31
2023-11-10T02:31:44.290Z,99614.81
2023-11-10T02:34:11.586Z,99613.84
2023-11-10T02:36:39.311Z,99619.72
2023-11-10T02:39:09.130Z,99618.84
2023-11-10T02:41:37.799Z,99622.34
2023-11-10T02:44:05.766Z,99623.28
2023-11-10T02:46:33.099Z,99619.94
2023-11-10T02:49:00.583Z,99619.03
2023-11-10T02:51:28.065Z,99620.00
2023-11-10T02:56:40.410Z,99630.41
2023-11-10T02:59:07.819Z,99634.81
2023-11-10T03:01:36.983Z,99635.78
2023-11-10T03:04:04.490Z,99634.03
2023-11-10T03:06:31.866Z,99634.25
2023-11-10T03:08:59.412Z,99632.69
2023-11-10T03:11:27.189Z,99634.38
2023-11-10T03:13:56.742Z,99636.88
2023-11-10T03:16:24.206Z,99636.88
2023-11-10T03:18:53.511Z,99630.00
2023-11-10T03:21:22.224Z,99635.03
2023-11-10T03:23:49.551Z,99632.47
2023-11-10T03:26:16.814Z,99629.19
2023-11-10T03:28:44.821Z,99616.78
2023-11-10T03:31:12.959Z,99638.34
2023-11-10T03:33:40.342Z,99632.31
2023-11-10T03:36:07.855Z,99639.16
2023-11-10T03:38:35.215Z,99639.97
2023-11-10T03:41:03.001Z,99635.69
2023-11-10T03:43:30.374Z,99643.22
2023-11-10T03:45:59.175Z,99649.97
2023-11-10T03:48:26.616Z,99649.09
2023-11-10T03:50:53.879Z,99646.41
2023-11-10T03:53:21.622Z,99652.16
2023-11-10T03:55:48.903Z,99659.66
2023-11-10T03:58:16.256Z,99674.16
2023-11-10T04:00:48.773Z,99674.31
2023-11-10T04:03:17.072Z,99675.25
2023-11-10T04:05:47.526Z,99676.94
2023-11-10T04:08:16.173Z,99682.97
2023-11-10T04:10:43.579Z,99684.66
2023-11-10T04:13:11.072Z,99682.97
2023-11-10T04:15:38.385Z,99683.84
2023-11-10T04:18:05.894Z,99690.66
2023-11-10T04:20:35.892Z,99694.03
2023-11-10T04:23:03.327Z,99695.72
2023-11-10T04:25:31.883Z,99701.59
2023-11-10T04:28:01.018Z,99697.03
2023-11-10T04:30:29.703Z,99699.44
2023-11-10T04:32:57.222Z,99697.59
2023-11-10T04:35:24.535Z,99703.78
2023-11-10T04:40:36.995Z,99713.69
2023-11-10T04:43:04.256Z,99714.50
2023-11-10T04:45:31.711Z,99722.19
2023-11-10T04:47:59.090Z,99719.63
2023-11-10T04:50:26.483Z,99723.78
2023-11-10T04:52:53.754Z,99730.66
2023-11-10T04:55:21.708Z,99734.03
2023-11-10T04:57:49.256Z,99727.97
2023-11-10T05:00:18.007Z,99742.44
2023-11-10T05:02:46.011Z,99742.56
2023-11-10T05:05:17.058Z,99742.38
2023-11-10T05:07:44.909Z,99750.06
2023-11-10T05:10:14.463Z,99755.25
2023-11-10T05:12:41.758Z,99750.13
2023-11-10T05:15:09.402Z,99761.31
2023-11-10T05:17:37.982Z,99758.75
2023-11-10T05:20:05.557Z,99761.31
2023-11-10T05:22:34.367Z,99742.91
2023-11-10T05:25:04.483Z,99767.38
2023-11-10T05:27:32.067Z,99768.09
2023-11-10T05:29:59.858Z,99777.53
2023-11-10T05:32:27.701Z,99777.53
2023-11-10T05:34:55.448Z,99776.72
2023-11-10T05:37:22.942Z,99782.81
2023-11-10T05:39:52.401Z,99788.88
2023-11-10T05:42:21.760Z,99794.00
2023-11-10T05:44:49.449Z,99791.44
2023-11-10T05:47:16.904Z,99799.09
2023-11-10T05:49:44.543Z,99806.16
2023-11-10T05:52:13.386Z,99796.56
2023-11-10T05:54:41.599Z,99805.09
2023-11-10T05:57:09.043Z,99804.28
2023-11-10T05:59:36.532Z,99806.94
2023-11-10T06:02:04.274Z,99800.84
2023-11-10T06:04:35.477Z,99808.47
2023-11-10T06:07:04.452Z,99814.53
2023-11-10T06:09:32.376Z,99815.41
2023-11-10T06:11:59.804Z,99820.53
2023-11-10T06:14:27.069Z,99811.16
2023-11-10T06:16:54.519Z,99818.06
2023-11-10T06:19:21.823Z,99813.03
2023-11-10T06:21:52.046Z,99819.03
2023-11-10T06:24:22.147Z,99827.59
2023-11-10T06:26:49.814Z,99831.16
2023-11-10T06:29:17.358Z,99830.50
2023-11-10T06:31:46.584Z,99828.88
2023-11-10T06:34:13.987Z,99833.25
2023-11-10T06:36:41.305Z,99847.16
2023-11-10T06:39:08.653Z,99834.47
2023-11-10T06:41:35.940Z,99840.50
2023-11-10T06:44:03.256Z,99840.69
2023-11-10T06:46:30.608Z,99847.50
2023-11-10T06:48:58.661Z,99852.69
2023-11-10T06:51:26.126Z,99846.63
2023-11-10T06:53:53.555Z,99859.47
2023-11-10T06:56:20.898Z,99855.19
2023-11-10T06:58:48.266Z,99854.53
2023-11-10T07:01:15.927Z,99860.63
2023-11-10T07:03:43.966Z,99859.16
2023-11-10T07:06:11.500Z,99863.47
2023-11-10T07:08:40.364Z,99867.66
2023-11-10T07:11:09.049Z,99871.75
2023-11-10T07:13:38.144Z,99864.75
2023-11-10T07:16:05.660Z,99870.53
2023-11-10T07:18:34.446Z,99870.53
2023-11-10T07:21:02.173Z,99870.66
2023-11-10T07:23:30.878Z,99874.53
2023-11-10T07:25:58.952Z,99877.50
2023-11-10T07:28:32.267Z,99878.44
2023-11-10T07:30:59.969Z,99880.19
2023-11-10T07:33:27.343Z,99882.22
2023-11-10T07:35:55.094Z,99891.00
2023-11-10T07:38:22.434Z,99888.56
2023-11-10T07:40:49.822Z,99885.41
2023-11-10T07:43:18.488Z,99884.66
2023-11-10T07:45:46.282Z,99886.50
2023-11-10T07:48:16.670Z,99885.63
2023-11-10T07:50:44.222Z,99886.66
2023-11-10T07:53:13.533Z,99882.19
2023-11-10T07:55:41.647Z,99881.56
2023-11-10T07:58:09.034Z,99882.94
2023-11-10T08:00:36.382Z,99882.44
2023-11-10T08:03:03.809Z,99895.72
2023-11-10T08:05:31.994Z,99901.09
2023-11-10T08:07:59.707Z,99900.91
2023-11-10T08:10:27.995Z,99899.72
2023-11-10T08:12:55.282Z,99904.16
2023-11-10T08:15:23.260Z,99911.28
2023-11-10T08:17:51.126Z,99907.69
2023-11-10T08:20:20.289Z,99913.31
2023-11-10T08:22:47.893Z,99914.16
2023-11-10T08:25:15.328Z,99914.38
2023-11-10T08:27:42.673Z,99914.72
2023-11-10T08:30:10.699Z,99909.94
2023-11-10T08:32:38.190Z,99918.25
2023-11-10T08:35:06.522Z,99915.69
2023-11-10T08:37:33.862Z,99914.47
2023-11-10T08:40:01.226Z,99917.91
2023-11-10T08:42:30.302Z,99914.00
2023-11-10T08:44:57.691Z,99913.69
2023-11-10T08:47:25.188Z,99924.53
2023-11-10T08:49:57.363Z,99918.41
2023-11-10T08:52:26.208Z,99918.91
2023-11-10T08:54:55.132Z,99918.56
2023-11-10T08:57:23.214Z,99917.75
2023-11-10T08:59:50.661Z,99915.91
2023-11-10T09:02:20.083Z,99907.28
2023-11-10T09:04:50.339Z,99913.44
2023-11-10T09:07:19.198Z,99904.56
2023-11-10T09:09:46.598Z,99905.78
2023-11-10T09:12:14.187Z,99908.53
2023-11-10T09:14:41.486Z,99885.88
2023-11-10T09:17:08.832Z,99904.03
2023-11-10T09:19:36.164Z,99911.75
2023-11-10T09:22:03.552Z,99901.44
2023-11-10T09:24:31.000Z,99905.59
2023-11-10T09:27:01.518Z,99903.44
2023-11-10T09:29:28.861Z,99905.81
2023-11-10T09:31:58.086Z,99905.72
2023-11-10T09:34:27.030Z,99905.53
2023-11-10T09:36:54.998Z,99907.84
2023-11-10T09:39:22.358Z,99910.31
2023-11-10T09:41:50.879Z,99907.47
2023-11-10T09:44:18.949Z,99909.91
2023-11-10T09:46:48.473Z,99908.91
2023-11-10T09:49:16.665Z,99925.09
2023-11-10T09:51:44.230Z,99911.13
2023-11-10T09:54:11.689Z,99921.19
2023-11-10T09:56:41.266Z,99920.88
2023-11-10T09:59:08.596Z,99923.16
2023-11-10T10:01:35.937Z,99928.78
2023-11-10T10:04:03.284Z,99926.78
2023-11-10T10:06:32.487Z,99920.72
2023-11-10T10:09:05.701Z,99914.59
2023-11-10T10:11:33.731Z,99914.72
2023-11-10T10:14:01.459Z,99914.78
2023-11-10T10:16:29.062Z,99916.66
2023-11-10T10:18:57.322Z,99909.97
2023-11-10T10:21:24.695Z,99915.25
2023-11-10T10:23:52.273Z,99913.56
2023-11-10T10:26:21.419Z,99917.81
2023-11-10T10:28:48.761Z,99924.69
2023-11-10T10:31:16.158Z,99921.25
2023-11-10T10:33:43.881Z,99926.44
2023-11-10T10:36:11.816Z,99923.81
2023-11-10T10:38:40.908Z,99923.00
2023-11-10T10:41:10.115Z,99922.84
2023-11-10T10:43:53.520Z,99925.34
2023-11-10T10:46:25.918Z,99929.34
2023-11-10T10:48:53.911Z,99927.53
2023-11-10T10:51:24.645Z,99929.22
2023-11-10T10:53:52.212Z,99934.47
2023-11-10T10:56:30.712Z,99935.34
2023-11-10T10:59:07.439Z,99936.31
2023-11-10T11:01:35.431Z,99938.94
2023-11-10T11:04:22.374Z,99935.50
2023-11-10T11:07:01.635Z,99936.38
2023-11-10T11:09:47.494Z,99937.25
2023-11-10T11:12:15.396Z,99933.97
2023-11-10T11:14:42.650Z,99936.75
2023-11-10T11:17:29.230Z,99941.34
2023-11-10T11:19:57.186Z,99940.03
2023-11-10T11:22:24.511Z,99941.91
2023-11-10T11:24:51.858Z,99936.22
2023-11-10T11:27:25.667Z,99936.34
2023-11-10T11:29:57.279Z,99935.56
2023-11-10T11:32:27.151Z,99934.84
2023-11-10T11:34:55.055Z,99935.34
2023-11-10T11:37:23.469Z,99938.66
2023-11-10T11:39:54.757Z,99942.09
2023-11-10T11:42:22.758Z,99942.09
2023-11-10T11:44:59.387Z,99943.09
2023-11-10T11:47:32.461Z,99947.38
2023-11-10T11:49:59.824Z,99945.41
2023-11-10T11:52:27.143Z,99950.22
2023-11-10T11:54:55.856Z,99945.72
2023-11-10T11:57:25.985Z,99936.19
2023-11-10T11:59:53.717Z,99940.47
2023-11-10T12:02:21.175Z,99937.63
2023-11-10T12:04:48.655Z,99938.31
2023-11-10T12:07:18.806Z,99917.38
2023-11-10T12:09:48.114Z,99940.31
2023-11-10T12:12:15.506Z,99937.94
2023-11-10T12:14:42.848Z,99944.88
2023-11-10T12:17:11.590Z,99951.91
2023-11-10T12:19:39.583Z,99951.47
2023-11-10T12:22:06.941Z,99950.81
2023-11-10T12:24:34.354Z,99947.09
2023-11-10T12:27:02.036Z,99945.63
2023-11-10T12:29:30.988Z,99942.72
2023-11-10T12:31:58.531Z,99947.22
2023-11-10T12:34:27.124Z,99950.22
2023-11-10T12:36:56.811Z,99947.00
2023-11-10T12:39:24.346Z,99945.06
2023-11-10T12:41:57.063Z,99944.88
2023-11-10T12:44:25.241Z,99947.28
2023-11-10T12:47:01.772Z,99952.31
2023-11-10T12:49:30.827Z,99952.63
2023-11-10T12:52:00.319Z,99956.63
2023-11-10T12:54:28.365Z,99953.06
2023-11-10T12:56:58.151Z,99948.00
2023-11-10T12:59:28.079Z,99939.47
2023-11-10T13:01:56.124Z,99941.19
2023-11-10T13:04:26.656Z,99944.22
2023-11-10T13:06:56.577Z,99949.09
2023-11-10T13:09:25.090Z,99952.94
2023-11-10T13:11:52.574Z,99949.06
2023-11-10T13:14:21.102Z,99956.50
2023-11-10T13:16:48.826Z,99958.84
2023-11-10T13:19:16.261Z,99955.41
2023-11-10T13:21:43.836Z,99960.13
2023-11-10T13:24:12.211Z,99962.63
2023-11-10T13:26:39.728Z,99960.66
2023-11-10T13:29:09.140Z,99958.97
2023-11-10T13:31:38.360Z,99959.91
2023-11-10T13:34:09.494Z,99953.50
2023-11-10T13:36:37.137Z,99968.94
2023-11-10T13:39:06.586Z,99958.56
2023-11-10T13:41:40.941Z,99953.28
2023-11-10T13:44:14.249Z,99959.72
2023-11-10T13:46:41.655Z,99963.03
2023-11-10T13:49:09.830Z,99963.56
2023-11-10T13:51:38.204Z,99973.66
2023-11-10T13:54:07.022Z,99972.25
2023-11-10T13:56:37.465Z,99979.50
2023-11-10T13:59:07.630Z,99977.88
2023-11-10T14:01:35.248Z,99980.53
2023-11-10T14:04:02.995Z,99980.44
2023-11-10T14:06:31.634Z,99977.75
2023-11-10T14:08:59.493Z,99983.00
2023-11-10T14:11:27.287Z,99978.69
2023-11-10T14:13:57.312Z,99983.81
2023-11-10T14:16:24.884Z,99983.63
2023-11-10T14:18:52.404Z,99973.88
2023-11-10T14:21:23.220Z,99978.78
2023-11-10T14:23:53.404Z,99977.31
2023-11-10T14:26:21.938Z,99979.66
2023-11-10T14:28:50.543Z,99974.59
2023-11-10T14:31:17.971Z,99979.50
2023-11-10T14:33:45.342Z,99977.97
2023-11-10T14:36:14.743Z,99983.91
2023-11-10T14:38:46.841Z,99989.25
2023-11-10T14:41:18.360Z,99989.19
2023-11-10T14:43:46.851Z,99993.31
2023-11-10T14:46:16.384Z,99994.31
2023-11-10T14:48:47.528Z,99996.25
2023-11-10T14:51:27.075Z,99997.06
2023-11-10T14:53:54.538Z,100005.50
2023-11-10T14:56:21.928Z,99989.19
2023-11-10T14:58:49.453Z,99989.81
2023-11-10T15:01:17.411Z,99991.38
2023-11-10T15:03:48.190Z,99988.72
2023-11-10T15:06:17.770Z,99990.22
2023-11-10T15:08:45.991Z,99980.78
2023-11-10T15:11:16.391Z,99989.91
2023-11-10T15:13:43.755Z,99987.44
2023-11-10T15:16:12.062Z,99984.47
2023-11-10T15:18:39.966Z,99996.16
2023-11-10T15:21:07.701Z,99982.47
2023-11-10T15:23:36.776Z,99978.88
2023-11-10T15:26:04.591Z,99976.25
2023-11-10T15:28:36.517Z,99980.06
2023-11-10T15:31:07.545Z,99969.38
2023-11-10T15:33:36.770Z,99973.63
2023-11-10T15:36:06.005Z,99970.31
2023-11-10T15:38:33.674Z,99970.88
2023-11-10T15:41:01.514Z,99973.56
2023-11-10T15:43:29.122Z,99967.31
2023-11-10T15:45:58.677Z,99974.06
2023-11-10T15:48:36.939Z,99974.00
2023-11-10T15:51:08.180Z,99976.31
2023-11-10T15:53:35.984Z,99983.19
2023-11-10T15:56:03.453Z,99979.09
2023-11-10T15:58:30.846Z,99975.81
2023-11-10T16:00:58.503Z,99974.25
2023-11-10T16:03:26.421Z,99977.13
2023-11-10T16:05:55.818Z,99972.06
2023-11-10T16:08:23.245Z,99972.56
2023-11-10T16:10:51.317Z,99971.63
2023-11-10T16:13:18.751Z,99984.72
2023-11-10T16:15:46.289Z,99976.31
2023-11-10T16:18:13.729Z,99978.00
2023-11-10T16:20:41.036Z,99978.25
2023-11-10T16:23:08.908Z,99979.63
2023-11-10T16:25:36.429Z,99972.69
2023-11-10T16:28:05.884Z,99981.81
2023-11-10T16:30:33.810Z,99978.56
2023-11-10T16:33:01.555Z,99979.25
2023-11-10T16:35:28.915Z,99980.13
2023-11-10T16:37:56.275Z,99987.00
2023-11-10T16:40:23.695Z,99984.66
2023-11-10T16:42:52.238Z,99977.56
2023-11-10T16:45:19.707Z,99975.81
2023-11-10T16:47:49.503Z,99974.13
2023-11-10T16:50:17.255Z,99974.56
2023-11-10T16:52:45.241Z,99976.25
2023-11-10T16:55:12.661Z,99986.63
2023-11-10T16:57:40.227Z,99976.75
2023-11-10T17:00:15.607Z,99972.44
2023-11-10T17:02:46.274Z,99979.31
2023-11-10T17:05:17.158Z,99975.13
2023-11-10T17:07:44.654Z,99972.50
2023-11-10T17:10:12.339Z,99978.56
2023-11-10T17:12:41.472Z,99970.13
2023-11-10T17:15:11.771Z,99974.50
2023-11-10T17:17:43.543Z,99970.31
2023-11-10T17:20:11.405Z,99972.75
2023-11-10T17:22:39.276Z,99974.34
2023-11-10T17:25:07.306Z,99973.91
2023-11-10T17:27:35.245Z,99981.59
2023-11-10T17:30:03.253Z,99980.00
2023-11-10T17:32:31.391Z,99975.41
2023-11-10T17:34:59.077Z,99974.47
2023-11-10T17:37:26.439Z,99984.38
2023-11-10T17:39:54.296Z,99983.41
2023-11-10T17:42:21.673Z,99986.06
2023-11-10T17:44:50.321Z,99992.38
2023-11-10T17:47:17.917Z,99983.94
2023-11-10T17:49:45.258Z,99983.06
2023-11-10T17:52:12.768Z,99976.81
2023-11-10T17:54:40.156Z,99977.56
2023-11-10T17:57:09.794Z,99977.81
2023-11-10T17:59:37.329Z,99983.25
2023-11-10T18:02:05.541Z,99972.19
2023-11-10T18:04:33.668Z,99983.38
2023-11-10T18:07:01.279Z,99985.91
2023-11-10T18:09:28.873Z,99973.06
2023-11-10T18:11:56.329Z,99975.84
2023-11-10T18:14:24.384Z,99977.41
2023-11-10T18:16:51.933Z,99972.94
2023-11-10T18:19:19.464Z,99977.25
2023-11-10T18:21:49.778Z,99979.66
2023-11-10T18:24:17.265Z,99978.78
2023-11-10T18:26:46.949Z,99971.19
2023-11-10T18:29:16.367Z,99981.69
2023-11-10T18:31:43.850Z,99965.94
2023-11-10T18:34:13.215Z,99981.22
2023-11-10T18:36:59.049Z,99969.59
2023-11-10T18:39:26.521Z,99962.47
2023-11-10T18:41:54.081Z,99974.56
2023-11-10T18:44:22.180Z,99972.66
2023-11-10T18:46:49.641Z,99974.88
2023-11-10T18:49:17.079Z,99979.69
2023-11-10T18:51:44.429Z,99973.53
2023-11-10T18:54:12.327Z,99974.09
2023-11-10T18:56:39.934Z,99975.91
2023-11-10T18:59:07.369Z,99972.41
2023-11-10T19:01:37.592Z,99976.19
2023-11-10T19:04:07.341Z,99975.72
2023-11-10T19:06:53.281Z,99966.91
2023-11-10T19:09:20.749Z,99984.31
2023-11-10T19:11:48.290Z,99980.41
2023-11-10T19:14:15.753Z,99979.78
2023-11-10T19:16:43.152Z,99983.78
2023-11-10T19:19:10.492Z,99981.53
2023-11-10T19:21:41.044Z,99974.84
2023-11-10T19:24:10.587Z,99971.00
2023-11-10T19:26:38.519Z,99971.94
2023-11-10T19:29:05.948Z,99974.44
2023-11-10T19:31:33.277Z,99972.16
2023-11-10T19:34:00.610Z,99972.09
2023-11-10T19:36:28.356Z,99979.34
2023-11-10T19:38:55.800Z,99975.66
2023-11-10T19:41:23.490Z,99976.53
2023-11-10T19:44:09.849Z,99964.09
2023-11-10T19:46:41.356Z,99968.25
2023-11-10T19:49:09.512Z,99967.94
2023-11-10T19:56:49.612Z,99966.16
2023-11-10T19:59:19.450Z,99968.16
2023-11-10T20:01:48.625Z,99965.16
2023-11-10T20:04:17.468Z,99960.72
2023-11-10T20:06:46.015Z,99967.50
2023-11-10T20:09:33.046Z,99956.50
2023-11-10T20:12:02.696Z,99950.50
2023-11-10T20:14:30.362Z,99962.88
2023-11-10T20:16:59.800Z,99970.91
2023-11-10T20:19:28.040Z,99963.25
2023-11-10T20:21:57.210Z,99966.16
2023-11-10T20:24:24.721Z,99960.25
2023-11-10T20:26:52.953Z,99968.69
2023-11-10T20:29:21.969Z,99973.53
2023-11-10T20:32:11.219Z,99971.97
2023-11-10T20:34:38.658Z,99971.00
2023-11-10T20:37:06.104Z,99965.81
2023-11-10T20:39:33.782Z,99961.56
2023-11-10T20:42:01.705Z,99963.56
2023-11-10T20:44:29.410Z,99965.56
2023-11-10T20:46:57.064Z,99956.78
2023-11-10T20:49:24.834Z,99958.78
2023-11-10T20:51:53.303Z,99962.03
2023-11-10T20:54:40.278Z,99947.28
2023-11-10T20:57:27.089Z,99944.81
2023-11-10T20:59:55.737Z,99956.78
2023-11-10T21:02:23.985Z,99956.59
2023-11-10T21:04:54.384Z,99953.03
2023-11-10T21:07:24.161Z,99957.19
2023-11-10T21:09:51.901Z,99952.25
2023-11-10T21:12:19.388Z,99954.31
2023-11-10T21:14:47.057Z,99958.16
2023-11-10T21:17:16.418Z,99948.88
2023-11-10T21:19:43.975Z,99960.34
2023-11-10T21:22:11.556Z,99958.00
2023-11-10T21:24:39.789Z,99959.09
2023-11-10T21:27:07.396Z,99963.09
2023-11-10T21:29:34.840Z,99955.25
2023-11-10T21:32:02.928Z,99948.25
2023-11-10T21:34:30.332Z,99953.41
2023-11-10T21:36:57.580Z,99958.16
2023-11-10T21:39:25.128Z,99954.78
2023-11-10T21:42:10.589Z,99951.22
2023-11-10T21:44:56.416Z,99951.38
2023-11-10T21:47:23.757Z,99953.13
2023-11-10T21:49:51.146Z,99956.53
2023-11-10T21:52:19.621Z,99955.44
2023-11-10T21:54:46.848Z,99959.09
2023-11-10T21:57:14.167Z,99952.97
2023-11-10T21:59:41.518Z,99953.69
2023-11-10T22:02:08.911Z,99947.53
2023-11-10T22:04:36.711Z,99947.94
2023-11-10T22:07:04.120Z,99946.72
2023-11-10T22:09:31.668Z,99958.38
2023-11-10T22:12:00.839Z,99953.09
2023-11-10T22:14:29.422Z,99953.66
2023-11-10T22:16:56.778Z,99948.53
2023-11-10T22:19:24.302Z,99957.16
2023-11-10T22:21:51.863Z,99956.28
2023-11-10T22:24:19.275Z,99947.75
2023-11-10T22:26:46.680Z,99945.00
2023-11-10T22:29:14.138Z,99937.91
2023-11-10T22:31:41.431Z,99928.47
2023-11-10T22:34:08.949Z,99932.53
2023-11-10T22:36:37.844Z,99923.41
2023-11-10T22:39:05.667Z,99927.38
2023-11-10T22:41:34.019Z,99924.84
2023-11-10T22:44:19.913Z,99921.41
2023-11-10T22:46:47.379Z,99917.97
2023-11-10T22:49:17.137Z,99919.13
2023-11-10T22:51:44.615Z,99922.53
2023-11-10T22:54:13.870Z,99916.94
2023-11-10T22:56:41.392Z,99918.69
2023-11-10T22:59:08.810Z,99927.13
2023-11-10T23:01:36.175Z,99926.44
2023-11-10T23:04:06.585Z,99924.50
2023-11-10T23:06:34.302Z,99923.63
2023-11-10T23:09:02.170Z,99928.38
2023-11-10T23:11:31.319Z,99918.97
2023-11-10T23:13:59.181Z,99918.00
2023-11-10T23:16:45.222Z,99917.72
2023-11-10T23:19:13.234Z,99917.72
2023-11-10T23:21:59.383Z,99918.97
2023-11-10T23:24:26.835Z,99924.22
2023-11-10T23:26:54.772Z,99918.53
2023-11-10T23:29:22.185Z,99915.03
2023-11-10T23:31:49.577Z,99916.78
2023-11-10T23:34:17.229Z,99907.28
2023-11-10T23:36:47.697Z,99906.91
2023-11-10T23:39:15.286Z,99907.09
2023-11-10T23:41:43.392Z,99915.50
2023-11-10T23:44:10.751Z,99907.78
2023-11-10T23:46:38.160Z,99909.53
2023-11-10T23:49:08.482Z,99916.28
2023-11-10T23:51:54.952Z,99905.28
2023-11-10T23:54:22.494Z,99911.66
2023-11-10T23:56:49.954Z,99911.66
2023-11-10T23:59:35.931Z,99911.22
